createdAt,value
2022-09-24T00:02:05.101Z,2.23
2022-09-24T00:04:33.474Z,2.33
2022-09-24T00:07:02.419Z,1.97
2022-09-24T00:09:30.111Z,2.10
2022-09-24T00:11:56.985Z,1.90
2022-09-24T00:14:24.543Z,2.23
2022-09-24T00:16:54.174Z,2.20
2022-09-24T00:19:21.769Z,2.10
2022-09-24T00:21:49.545Z,1.77
2022-09-24T00:24:36.575Z,1.83
2022-09-24T00:27:05.836Z,2.27
2022-09-24T00:29:35.333Z,1.83
2022-09-24T00:32:05.047Z,2.10
2022-09-24T00:34:31.978Z,2.30
2022-09-24T00:37:00.590Z,2.30
2022-09-24T00:39:29.559Z,2.67
2022-09-24T00:41:57.885Z,2.00
2022-09-24T00:44:41.602Z,2.10
2022-09-24T00:47:28.721Z,1.97
2022-09-24T00:50:15.214Z,1.83
2022-09-24T00:53:03.847Z,2.10
2022-09-24T00:55:33.707Z,1.80
2022-09-24T00:58:06.021Z,1.40
2022-09-24T01:00:37.734Z,1.70
2022-09-24T01:03:14.280Z,1.60
2022-09-24T01:05:41.830Z,1.47
2022-09-24T01:08:17.818Z,1.30
2022-09-24T01:10:56.541Z,1.53
2022-09-24T01:13:43.935Z,1.40
2022-09-24T01:16:12.356Z,1.17
2022-09-24T01:18:44.227Z,1.20
2022-09-24T01:21:28.168Z,1.27
2022-09-24T01:24:01.819Z,1.30
2022-09-24T01:26:40.524Z,1.20
2022-09-24T01:29:41.882Z,1.30
2022-09-24T01:32:46.386Z,1.50
2022-09-24T01:35:26.943Z,1.27
2022-09-24T01:38:00.683Z,1.60
2022-09-24T01:40:30.736Z,1.70
2022-09-24T01:43:01.858Z,1.30
2022-09-24T01:45:31.966Z,1.90
2022-09-24T01:48:01.906Z,1.60
2022-09-24T01:50:34.871Z,1.70
2022-09-24T01:53:11.492Z,1.53
2022-09-24T01:55:48.185Z,1.50
2022-09-24T01:58:23.882Z,1.53
2022-09-24T02:00:58.004Z,1.60
2022-09-24T02:03:35.084Z,1.47
2022-09-24T02:06:09.845Z,1.90
2022-09-24T02:08:45.782Z,1.50
2022-09-24T02:11:17.468Z,1.43
2022-09-24T02:14:08.566Z,1.97
2022-09-24T02:16:48.006Z,1.30
2022-09-24T02:19:25.174Z,1.57
2022-09-24T02:21:53.701Z,1.00
2022-09-24T02:24:34.763Z,1.53
2022-09-24T02:27:03.387Z,1.30
2022-09-24T02:29:33.206Z,1.23
2022-09-24T02:32:02.507Z,1.10
2022-09-24T02:34:34.361Z,1.73
2022-09-24T02:37:14.257Z,2.10
2022-09-24T02:39:42.266Z,1.80
2022-09-24T02:42:13.687Z,1.70
2022-09-24T02:44:41.302Z,1.30
2022-09-24T02:47:09.467Z,1.27
2022-09-24T02:49:37.617Z,1.40
2022-09-24T02:52:05.958Z,1.70
2022-09-24T02:54:34.372Z,1.57
2022-09-24T02:57:01.903Z,1.63
2022-09-24T02:59:29.408Z,2.00
2022-09-24T03:01:58.013Z,1.80
2022-09-24T03:04:26.434Z,1.73
2022-09-24T03:06:55.363Z,2.07
2022-09-24T03:09:23.063Z,2.43
2022-09-24T03:11:50.240Z,1.77
2022-09-24T03:14:17.890Z,1.63
2022-09-24T03:16:44.878Z,1.80
2022-09-24T03:19:12.430Z,1.87
2022-09-24T03:21:40.625Z,1.73
2022-09-24T03:24:08.312Z,1.90
2022-09-24T03:26:36.206Z,2.77
2022-09-24T03:29:04.998Z,1.40
2022-09-24T03:31:33.171Z,1.73
2022-09-24T03:34:01.498Z,1.40
2022-09-24T03:36:30.257Z,1.83
2022-09-24T03:38:58.659Z,1.43
2022-09-24T03:41:28.348Z,1.97
2022-09-24T03:43:56.864Z,1.47
2022-09-24T03:46:28.483Z,1.50
2022-09-24T03:48:59.300Z,1.43
2022-09-24T03:51:28.713Z,1.53
2022-09-24T03:53:56.246Z,1.80
2022-09-24T03:56:25.436Z,1.60
2022-09-24T03:58:53.029Z,1.60
2022-09-24T04:01:21.985Z,1.37
2022-09-24T04:03:50.413Z,1.60
2022-09-24T04:06:23.624Z,1.47
2022-09-24T04:08:54.315Z,1.10
2022-09-24T04:11:21.648Z,1.20
2022-09-24T04:13:50.129Z,1.10
2022-09-24T04:16:17.895Z,1.17
2022-09-24T04:18:47.986Z,1.40
2022-09-24T04:21:15.614Z,1.40
2022-09-24T04:23:42.594Z,1.80
2022-09-24T04:26:11.073Z,1.40
2022-09-24T04:28:39.991Z,1.60
2022-09-24T04:31:08.397Z,1.30
2022-09-24T04:33:36.771Z,1.27
2022-09-24T04:36:03.706Z,1.30
2022-09-24T04:38:31.234Z,1.57
2022-09-24T04:41:09.533Z,1.30
2022-09-24T04:43:37.207Z,1.57
2022-09-24T04:46:06.664Z,1.40
2022-09-24T04:48:38.258Z,1.20
2022-09-24T04:51:08.843Z,1.30
2022-09-24T04:53:37.322Z,1.13
2022-09-24T04:56:07.723Z,1.27
2022-09-24T04:58:36.183Z,1.30
2022-09-24T05:01:04.391Z,1.43
2022-09-24T05:03:33.192Z,1.40
2022-09-24T05:06:01.997Z,1.23
2022-09-24T05:08:30.129Z,1.27
2022-09-24T05:10:57.021Z,1.50
2022-09-24T05:13:25.485Z,1.40
2022-09-24T05:15:53.317Z,1.53
2022-09-24T05:18:24.486Z,1.20
2022-09-24T05:20:52.854Z,1.37
2022-09-24T05:23:19.993Z,1.73
2022-09-24T05:26:06.815Z,1.57
2022-09-24T05:28:35.287Z,1.80
2022-09-24T05:31:03.149Z,1.40
2022-09-24T05:33:32.268Z,1.20
2022-09-24T05:35:59.809Z,1.40
2022-09-24T05:38:27.439Z,1.77
2022-09-24T05:40:55.810Z,1.40
2022-09-24T05:43:27.681Z,1.40
2022-09-24T05:45:57.134Z,1.50
2022-09-24T05:48:28.763Z,1.43
2022-09-24T05:50:57.295Z,1.43
2022-09-24T05:53:27.069Z,1.50
2022-09-24T05:55:55.379Z,1.33
2022-09-24T05:58:22.946Z,1.60
2022-09-24T06:00:53.439Z,1.90
2022-09-24T06:03:21.124Z,1.43
2022-09-24T06:05:50.536Z,1.50
2022-09-24T06:08:20.398Z,1.57
2022-09-24T06:10:48.931Z,1.70
2022-09-24T06:13:20.865Z,1.87
2022-09-24T06:15:49.178Z,1.50
2022-09-24T06:18:16.818Z,1.30
2022-09-24T06:20:45.879Z,1.57
2022-09-24T06:23:14.222Z,1.30
2022-09-24T06:25:44.267Z,1.20
2022-09-24T06:28:12.054Z,2.13
2022-09-24T06:30:41.352Z,1.57
2022-09-24T06:33:13.229Z,1.80
2022-09-24T06:35:41.918Z,2.00
2022-09-24T06:38:13.331Z,1.50
2022-09-24T06:40:41.797Z,1.60
2022-09-24T06:43:10.937Z,1.40
2022-09-24T06:45:39.849Z,1.90
2022-09-24T06:48:07.518Z,1.83
2022-09-24T06:50:35.123Z,1.80
2022-09-24T06:53:05.767Z,1.70
2022-09-24T06:55:35.909Z,1.70
2022-09-24T06:58:06.659Z,2.10
2022-09-24T07:00:35.359Z,1.57
2022-09-24T07:03:03.820Z,1.67
2022-09-24T07:05:31.105Z,1.50
2022-09-24T07:07:59.160Z,1.53
2022-09-24T07:10:28.133Z,1.50
2022-09-24T07:12:55.748Z,2.00
2022-09-24T07:15:22.600Z,1.67
2022-09-24T07:17:49.461Z,1.50
2022-09-24T07:20:17.997Z,1.90
2022-09-24T07:22:45.718Z,1.50
2022-09-24T07:25:13.910Z,1.50
2022-09-24T07:27:40.757Z,2.00
2022-09-24T07:30:10.605Z,2.20
2022-09-24T07:32:38.322Z,2.40
2022-09-24T07:35:05.695Z,2.40
2022-09-24T07:37:34.302Z,2.20
2022-09-24T07:40:02.076Z,1.90
2022-09-24T07:42:30.711Z,2.00
2022-09-24T07:44:57.773Z,1.83
2022-09-24T07:47:25.399Z,1.97
2022-09-24T07:49:52.235Z,1.50
2022-09-24T07:52:19.846Z,1.80
2022-09-24T07:54:47.358Z,1.57
2022-09-24T07:57:15.543Z,1.83
2022-09-24T07:59:44.791Z,1.80
2022-09-24T08:02:17.922Z,1.77
2022-09-24T08:04:46.277Z,1.40
2022-09-24T08:07:16.723Z,1.93
2022-09-24T08:09:44.271Z,1.70
2022-09-24T08:12:13.175Z,1.40
2022-09-24T08:14:43.370Z,1.73
2022-09-24T08:17:11.813Z,1.60
2022-09-24T08:19:43.267Z,1.60
2022-09-24T08:22:10.243Z,1.20
2022-09-24T08:24:38.707Z,1.23
2022-09-24T08:27:05.629Z,1.77
2022-09-24T08:29:34.821Z,1.50
2022-09-24T08:32:03.040Z,1.57
2022-09-24T08:34:29.948Z,1.40
2022-09-24T08:36:57.570Z,1.57
2022-09-24T08:39:27.884Z,1.40
2022-09-24T08:42:19.354Z,1.20
2022-09-24T08:45:08.334Z,1.37
2022-09-24T08:48:04.729Z,1.30
2022-09-24T08:50:35.092Z,1.50
2022-09-24T08:53:15.926Z,1.40
2022-09-24T08:55:51.344Z,1.20
2022-09-24T08:58:20.930Z,1.20
2022-09-24T09:01:04.047Z,1.00
2022-09-24T09:03:40.188Z,1.20
2022-09-24T09:06:33.317Z,1.20
2022-09-24T09:09:07.776Z,0.80
2022-09-24T09:11:37.967Z,1.00
2022-09-24T09:14:13.767Z,1.00
2022-09-24T09:16:53.490Z,1.20
2022-09-24T09:19:27.217Z,1.00
2022-09-24T09:22:04.607Z,1.00
2022-09-24T09:24:49.693Z,1.33
2022-09-24T09:27:18.083Z,1.10
2022-09-24T09:29:50.730Z,1.23
2022-09-24T09:32:21.519Z,1.27
2022-09-24T09:35:15.852Z,1.10
2022-09-24T09:38:25.148Z,0.77
2022-09-24T09:41:30.471Z,1.30
2022-09-24T09:44:29.742Z,0.90
2022-09-24T09:47:09.907Z,0.73
2022-09-24T09:49:40.375Z,0.97
2022-09-24T09:52:28.565Z,0.80
2022-09-24T09:54:57.434Z,0.90
2022-09-24T09:57:26.468Z,1.40
2022-09-24T09:59:55.638Z,1.00
2022-09-24T10:02:31.586Z,1.03
2022-09-24T10:05:04.223Z,1.07
2022-09-24T10:07:43.191Z,1.10
2022-09-24T10:10:24.334Z,0.83
2022-09-24T10:13:12.968Z,0.90
2022-09-24T10:15:53.434Z,1.27
2022-09-24T10:18:50.847Z,0.90
2022-09-24T10:21:45.459Z,1.10
2022-09-24T10:24:18.755Z,0.80
2022-09-24T10:26:48.487Z,1.00
2022-09-24T10:29:39.947Z,1.07
2022-09-24T10:32:18.524Z,1.03
2022-09-24T10:35:05.830Z,0.90
2022-09-24T10:37:34.933Z,1.10
2022-09-24T10:40:13.791Z,1.10
2022-09-24T10:42:42.178Z,1.03
2022-09-24T10:45:15.840Z,0.97
2022-09-24T10:47:53.645Z,1.50
2022-09-24T10:50:31.602Z,9.60
2022-09-24T10:53:46.778Z,3.17
2022-09-24T10:56:31.417Z,1.00
2022-09-24T10:59:08.810Z,1.00
2022-09-24T11:01:48.465Z,0.97
2022-09-24T11:04:35.170Z,1.10
2022-09-24T11:07:31.586Z,1.10
2022-09-24T11:10:21.469Z,0.93
2022-09-24T11:13:07.954Z,0.87
2022-09-24T11:15:54.855Z,1.30
2022-09-24T11:18:46.834Z,1.00
2022-09-24T11:21:35.559Z,1.20
2022-09-24T11:24:18.976Z,1.30
2022-09-24T11:27:18.913Z,1.40
2022-09-24T11:30:08.308Z,1.33
2022-09-24T11:33:01.737Z,1.93
2022-09-24T11:35:30.936Z,1.80
2022-09-24T11:38:06.503Z,1.40
2022-09-24T11:41:11.850Z,1.90
2022-09-24T11:43:50.562Z,1.60
2022-09-24T11:46:47.432Z,2.20
2022-09-24T11:50:02.719Z,2.20
2022-09-24T11:52:38.480Z,1.73
2022-09-24T11:55:18.119Z,1.60
2022-09-24T11:57:58.339Z,1.60
2022-09-24T12:00:32.406Z,1.80
2022-09-24T12:03:04.226Z,3.17
2022-09-24T12:05:52.321Z,5.37
2022-09-24T12:08:36.365Z,7.00
2022-09-24T12:11:18.587Z,6.07
2022-09-24T12:14:03.541Z,5.00
2022-09-24T12:16:39.364Z,4.40
2022-09-24T12:19:46.287Z,3.33
2022-09-24T12:22:17.261Z,4.50
2022-09-24T12:24:54.685Z,2.63
2022-09-24T12:27:38.118Z,1.77
2022-09-24T12:30:48.252Z,2.40
2022-09-24T12:33:23.382Z,2.10
2022-09-24T12:36:10.909Z,1.37
2022-09-24T12:38:47.770Z,1.23
2022-09-24T12:41:26.862Z,1.27
2022-09-24T12:44:14.377Z,1.00
2022-09-24T12:46:53.828Z,1.10
2022-09-24T12:49:27.446Z,1.40
2022-09-24T12:51:59.836Z,1.23
2022-09-24T12:54:38.087Z,1.07
2022-09-24T12:57:25.494Z,0.80
2022-09-24T13:00:02.526Z,1.00
2022-09-24T13:02:52.757Z,1.10
2022-09-24T13:05:22.726Z,1.20
2022-09-24T13:08:03.346Z,1.00
2022-09-24T13:10:36.468Z,0.70
2022-09-24T13:13:22.455Z,0.97
2022-09-24T13:16:06.943Z,0.93
2022-09-24T13:18:37.403Z,1.00
2022-09-24T13:21:09.340Z,1.83
2022-09-24T13:23:37.800Z,1.87
2022-09-24T13:26:09.310Z,2.23
2022-09-24T13:28:48.888Z,1.90
2022-09-24T13:31:27.834Z,1.80
2022-09-24T13:34:03.279Z,2.00
2022-09-24T13:36:48.171Z,1.67
2022-09-24T13:39:44.911Z,1.87
2022-09-24T13:42:35.754Z,1.90
2022-09-24T13:45:09.640Z,2.20
2022-09-24T13:47:46.382Z,2.43
2022-09-24T13:50:26.113Z,3.00
2022-09-24T13:52:59.739Z,3.20
2022-09-24T13:55:33.487Z,2.70
2022-09-24T13:58:01.127Z,2.83
2022-09-24T14:00:30.117Z,2.17
2022-09-24T14:03:16.578Z,2.00
2022-09-24T14:05:44.488Z,1.63
2022-09-24T14:08:18.727Z,2.13
2022-09-24T14:10:49.050Z,1.60
2022-09-24T14:13:26.613Z,1.47
2022-09-24T14:15:55.298Z,1.23
2022-09-24T14:18:24.597Z,1.27
2022-09-24T14:20:58.713Z,1.50
2022-09-24T14:23:31.162Z,1.30
2022-09-24T14:26:00.843Z,1.20
2022-09-24T14:28:32.762Z,1.30
2022-09-24T14:31:01.841Z,1.73
2022-09-24T14:33:33.063Z,1.53
2022-09-24T14:36:02.759Z,1.40
2022-09-24T14:38:54.082Z,1.30
2022-09-24T14:41:27.686Z,1.47
2022-09-24T14:44:04.086Z,1.27
2022-09-24T14:46:35.294Z,1.50
2022-09-24T14:49:24.516Z,1.60
2022-09-24T14:52:00.476Z,1.20
2022-09-24T14:54:35.607Z,1.20
2022-09-24T14:57:11.481Z,1.40
2022-09-24T14:59:41.736Z,1.20
2022-09-24T15:02:34.967Z,1.20
2022-09-24T15:05:07.101Z,1.43
2022-09-24T15:07:35.416Z,1.50
2022-09-24T15:10:05.523Z,1.57
2022-09-24T15:12:37.942Z,1.60
2022-09-24T15:15:27.970Z,1.30
2022-09-24T15:17:56.525Z,1.20
2022-09-24T15:20:24.172Z,1.50
2022-09-24T15:22:54.677Z,1.10
2022-09-24T15:25:22.994Z,2.07
2022-09-24T15:27:54.581Z,1.70
2022-09-24T15:30:22.443Z,1.17
2022-09-24T15:32:51.738Z,1.43
2022-09-24T15:35:19.457Z,1.30
2022-09-24T15:37:48.666Z,1.30
2022-09-24T15:40:25.580Z,1.80
2022-09-24T15:42:55.045Z,1.27
2022-09-24T15:45:25.500Z,1.70
2022-09-24T15:47:53.924Z,1.73
2022-09-24T15:50:22.626Z,2.00
2022-09-24T15:52:55.150Z,1.20
2022-09-24T15:55:24.211Z,1.53
2022-09-24T15:57:53.190Z,1.47
2022-09-24T16:00:23.596Z,1.50
2022-09-24T16:02:55.703Z,1.40
2022-09-24T16:05:24.733Z,1.60
2022-09-24T16:07:52.332Z,1.70
2022-09-24T16:10:20.334Z,1.47
2022-09-24T16:12:50.693Z,1.90
2022-09-24T16:15:19.024Z,1.90
2022-09-24T16:17:50.105Z,1.83
2022-09-24T16:20:19.447Z,1.90
2022-09-24T16:22:46.286Z,2.03
2022-09-24T16:25:13.146Z,1.97
2022-09-24T16:27:41.010Z,2.30
2022-09-24T16:30:09.361Z,2.27
2022-09-24T16:32:37.554Z,2.70
2022-09-24T16:35:06.375Z,2.30
2022-09-24T16:37:34.610Z,3.40
2022-09-24T16:40:03.541Z,3.23
2022-09-24T16:42:31.563Z,3.77
2022-09-24T16:45:00.714Z,2.67
2022-09-24T16:47:31.203Z,3.10
2022-09-24T16:49:58.162Z,3.00
2022-09-24T16:52:25.142Z,3.63
2022-09-24T16:54:55.226Z,3.70
2022-09-24T16:57:22.770Z,4.07
2022-09-24T16:59:49.623Z,4.47
2022-09-24T17:02:18.430Z,4.23
2022-09-24T17:04:45.557Z,3.97
2022-09-24T17:07:13.476Z,3.13
2022-09-24T17:10:00.831Z,3.63
2022-09-24T17:12:29.277Z,3.30
2022-09-24T17:14:57.810Z,3.60
2022-09-24T17:17:25.988Z,3.80
2022-09-24T17:19:53.671Z,4.50
2022-09-24T17:22:21.211Z,4.57
2022-09-24T17:24:49.298Z,5.20
2022-09-24T17:27:17.497Z,5.63
2022-09-24T17:29:45.127Z,5.53
2022-09-24T17:32:12.027Z,4.97
2022-09-24T17:34:45.520Z,5.77
2022-09-24T17:37:13.562Z,5.30
2022-09-24T17:39:41.368Z,5.63
2022-09-24T17:42:10.297Z,6.43
2022-09-24T17:44:38.359Z,4.90
2022-09-24T17:47:07.853Z,5.53
2022-09-24T17:49:36.244Z,5.67
2022-09-24T17:52:04.519Z,5.27
2022-09-24T17:54:32.241Z,5.70
2022-09-24T17:57:00.439Z,4.87
2022-09-24T17:59:28.864Z,4.90
2022-09-24T18:01:57.299Z,5.63
2022-09-24T18:04:28.226Z,4.40
2022-09-24T18:06:56.442Z,4.60
2022-09-24T18:09:24.799Z,5.13
2022-09-24T18:11:53.177Z,4.90
2022-09-24T18:14:23.011Z,4.90
2022-09-24T18:16:52.450Z,10.10
2022-09-24T18:19:23.147Z,6.17
2022-09-24T18:21:51.621Z,9.73
2022-09-24T18:24:20.842Z,7.73
2022-09-24T18:26:52.355Z,7.50
2022-09-24T18:29:21.438Z,9.70
2022-09-24T18:31:51.812Z,9.77
2022-09-24T18:34:18.757Z,9.73
2022-09-24T18:36:47.226Z,10.20
2022-09-24T18:39:21.884Z,10.87
2022-09-24T18:41:52.770Z,11.50
2022-09-24T18:44:22.972Z,11.20
2022-09-24T18:46:52.502Z,12.60
2022-09-24T18:49:21.441Z,11.77
2022-09-24T18:51:52.216Z,12.20
2022-09-24T18:54:20.676Z,12.90
2022-09-24T18:56:49.466Z,12.73
2022-09-24T18:59:19.457Z,13.77
2022-09-24T19:01:50.638Z,16.43
2022-09-24T19:04:19.426Z,16.07
2022-09-24T19:06:48.566Z,16.03
2022-09-24T19:09:17.480Z,14.07
2022-09-24T19:11:49.046Z,14.07
2022-09-24T19:14:18.469Z,13.40
2022-09-24T19:16:47.418Z,15.37
2022-09-24T19:19:16.377Z,19.23
2022-09-24T19:21:45.023Z,16.93
2022-09-24T19:24:12.673Z,18.83
2022-09-24T19:26:41.561Z,16.90
2022-09-24T19:29:11.561Z,27.80
2022-09-24T19:31:42.698Z,33.47
2022-09-24T19:34:13.426Z,24.77
2022-09-24T19:36:44.269Z,21.47
2022-09-24T19:39:18.204Z,20.47
2022-09-24T19:41:47.338Z,20.80
2022-09-24T19:44:16.540Z,19.23
2022-09-24T19:46:47.030Z,17.27
2022-09-24T19:49:15.285Z,21.20
2022-09-24T19:51:43.654Z,20.10
2022-09-24T19:54:12.697Z,18.90
2022-09-24T19:56:41.495Z,16.93
2022-09-24T19:59:10.276Z,16.30
2022-09-24T20:01:38.885Z,18.43
2022-09-24T20:04:08.270Z,17.37
2022-09-24T20:06:38.004Z,13.57
2022-09-24T20:09:07.951Z,13.27
2022-09-24T20:11:36.509Z,12.87
2022-09-24T20:14:06.036Z,12.40
2022-09-24T20:16:34.722Z,10.00
2022-09-24T20:19:04.295Z,9.00
2022-09-24T20:21:38.515Z,9.13
2022-09-24T20:24:07.737Z,10.00
2022-09-24T20:26:54.629Z,9.40
2022-09-24T20:29:23.974Z,8.87
2022-09-24T20:31:53.271Z,9.00
2022-09-24T20:34:34.491Z,8.40
2022-09-24T20:37:05.595Z,5.87
2022-09-24T20:39:34.024Z,6.93
2022-09-24T20:42:05.832Z,5.60
2022-09-24T20:44:33.957Z,4.90
2022-09-24T20:47:03.408Z,7.87
2022-09-24T20:49:33.353Z,10.73
2022-09-24T20:52:03.441Z,12.37
2022-09-24T20:54:33.791Z,17.17
2022-09-24T20:57:02.903Z,11.13
2022-09-24T20:59:31.130Z,6.13
2022-09-24T21:01:59.929Z,14.23
2022-09-24T21:04:28.833Z,14.03
2022-09-24T21:06:56.344Z,11.37
2022-09-24T21:09:25.075Z,9.53
2022-09-24T21:11:54.580Z,12.73
2022-09-24T21:14:23.811Z,18.33
2022-09-24T21:16:55.146Z,20.53
2022-09-24T21:19:24.359Z,8.60
2022-09-24T21:21:53.934Z,10.53
2022-09-24T21:24:25.116Z,7.77
2022-09-24T21:26:59.137Z,6.53
2022-09-24T21:29:27.408Z,8.57
2022-09-24T21:31:56.014Z,9.50
2022-09-24T21:34:24.277Z,6.60
2022-09-24T21:36:53.181Z,10.00
2022-09-24T21:39:23.712Z,8.17
2022-09-24T21:41:55.005Z,8.60
2022-09-24T21:44:23.460Z,5.60
2022-09-24T21:46:53.489Z,4.40
2022-09-24T21:49:22.848Z,8.73
2022-09-24T21:51:53.799Z,4.30
2022-09-24T21:54:22.405Z,6.30
2022-09-24T21:56:50.738Z,6.83
2022-09-24T21:59:37.278Z,3.73
2022-09-24T22:02:05.833Z,5.13
2022-09-24T22:04:34.597Z,4.30
2022-09-24T22:07:03.333Z,5.70
2022-09-24T22:09:32.597Z,6.13
2022-09-24T22:12:01.455Z,4.33
2022-09-24T22:14:30.418Z,5.30
2022-09-24T22:16:59.437Z,4.77
2022-09-24T22:19:27.043Z,5.17
2022-09-24T22:21:55.323Z,4.97
2022-09-24T22:24:23.397Z,4.30
2022-09-24T22:26:51.784Z,4.47
2022-09-24T22:29:18.622Z,5.23
2022-09-24T22:31:46.899Z,5.40
2022-09-24T22:34:32.920Z,5.47
2022-09-24T22:37:03.458Z,5.17
2022-09-24T22:39:30.286Z,5.03
2022-09-24T22:41:58.057Z,4.63
2022-09-24T22:44:26.319Z,3.93
2022-09-24T22:46:55.581Z,4.00
2022-09-24T22:49:23.427Z,3.90
2022-09-24T22:51:51.568Z,4.47
2022-09-24T22:54:18.446Z,3.57
2022-09-24T22:56:46.450Z,4.30
2022-09-24T22:59:14.039Z,4.20
2022-09-24T23:01:44.384Z,4.10
2022-09-24T23:04:15.132Z,4.27
2022-09-24T23:06:43.864Z,4.37
2022-09-24T23:09:11.166Z,4.07
2022-09-24T23:11:39.148Z,4.00
2022-09-24T23:14:14.992Z,4.00
2022-09-24T23:16:43.468Z,3.80
2022-09-24T23:19:20.849Z,3.47
2022-09-24T23:21:49.169Z,2.93
2022-09-24T23:24:19.714Z,3.30
2022-09-24T23:26:47.916Z,3.50
2022-09-24T23:29:16.986Z,3.90
2022-09-24T23:31:45.506Z,3.30
2022-09-24T23:34:14.604Z,3.20
2022-09-24T23:36:42.358Z,5.27
2022-09-24T23:39:10.739Z,4.00
2022-09-24T23:41:39.052Z,3.70
2022-09-24T23:44:08.384Z,3.70
2022-09-24T23:46:36.099Z,3.00
2022-09-24T23:49:04.586Z,2.47
2022-09-24T23:51:33.296Z,2.70
2022-09-24T23:54:02.152Z,2.50
2022-09-24T23:56:31.249Z,2.47
2022-09-24T23:58:58.803Z,2.40
